ETSN 210020Z 02003KT 9999 BKN050 10/08 Q1023 BLU ETSN 202320Z 35003KT 9999 FEW040 BKN050 10/08 Q1023 BLU ETSN 202220Z 00000KT 9999 FEW035 BKN050 11/08 Q1023 BLU ETSN 202120Z 05002KT 9999 FEW035 BKN045 12/08 Q1023 BLU ETSN 202020Z 35002KT 9999 BKN050 12/09 Q1022 BLU ETSN 201920Z 05002KT 9999 BKN050 12/08 Q1022 BLU ETSN 201820Z 02002KT 9999 BKN050 13/08 Q1021 BLU ETSN 201720Z 35002KT 9999 BKN050 13/08 Q1021 BLU ETSN 201620Z 08003KT 9999 FEW028 BKN048 14/08 Q1020 BLU ETSN 201520Z 36002KT 9999 FEW028 BKN043 15/08 Q1020 BLU ETSN 201508Z 36002KT 9999 FEW028 BKN043 14/08 Q1020 BLU FCST CNL ETSN 201420Z 34002KT 9999 FEW028 BKN042 15/07 Q1020 BLU BLU ETSN 201320Z 00000KT 9999 FEW030 BKN050 14/06 Q1020 BLU BLU ETSN 201220Z 06002KT 9999 FEW024 SCT036 BKN045 13/06 Q1020 BLU BLU ETSN 201120Z 07003KT 9999 FEW023 BKN043 13/08 Q1019 BLU BLU ETSN 201020Z 06003KT 9999 FEW020 BKN040 12/08 Q1019 BLU BLU ETSN 200920Z 07003KT 9999 FEW025 BKN043 12/07 Q1019 BLU BLU ETSN 200820Z 08003KT 9999 FEW025 BKN040 11/08 Q1019 BLU BLU ETSN 200720Z VRB01KT 9999 FEW030 BKN040 11/08 Q1018 BLU BLU ETSN 200620Z 04002KT 9999 BKN038 11/08 Q1018 BLU BLU ETSN 200520Z 08003KT 9999 SCT030 BKN040 11/08 Q1018 BLU ETSN 200448Z 07001KT 9999 FEW030 BKN045 11/08 Q1017 BLU ETSN 200420Z 00000KT 9999 FEW030 BKN043 11/08 Q1017 BLACKBLU ETSN 200320Z VRB01KT 9999 SCT027 BKN045 11/09 Q1017 BLACKBLU ETSN 200220Z AUTO 00000KT 9999 // ////// 11/08 Q1017 /// ETSN 200120Z AUTO 00000KT 9999 // ////// 11/09 Q1017 /// ETSN 200020Z AUTO 08002KT 9999 // ////// 11/08 Q1017 /// ETSN 192320Z AUTO 10003KT 9999 // ////// 11/08 Q1016 /// ETSN 192220Z AUTO 08003KT 9999 // ////// 12/09 Q1016 /// ETSN 192120Z AUTO 06002KT 9999 // ////// 12/09 Q1016 /// ETSN 192020Z AUTO 04003KT 9999 // ////// 12/09 Q1015 /// ETSN 191920Z AUTO 07005KT 9999 // ////// 12/09 Q1015 /// ETSN 191820Z AUTO 04005KT 9999 // ////// 13/09 Q1014 /// ETSN 191720Z AUTO 04004KT 9999 // ////// 15/10 Q1014 /// ETSN 191620Z AUTO 04005KT 9999 // ////// 16/10 Q1013 /// ETSN 191520Z AUTO 02004KT 9999 // ////// 18/11 Q1013 /// ETSN 191420Z AUTO 04004KT 9999 // ////// 18/10 Q1013 ///

METAR Messwerte

Zurück zur Übersicht

Ort
m ü. NN
Zeit Temperatur Taupunkt Rel.
Luftfeuchte
Luftdruck:
Altimeter
NN
Station
Wind in Beaufort
(Knoten)
Sichtweite
(Meter)
Wolken
(Meter über Grund)
Wettererscheinung
Neuburg/Donau
387
Di 21.09. 02:2010887 %1023
1024
977
NNO 2 (3)>= 10000Stark bewölkt (1500) 
Neuburg/Donau
387
Di 21.09. 01:2010887 %1023
1024
977
N 2 (3)>= 10000Stark bewölkt (1500)
Leicht bewölkt (1200)
 
Neuburg/Donau
387
Di 21.09. 00:2011882 %1023
1024
977
Windstill>= 10000Stark bewölkt (1500)
Leicht bewölkt (1100)
 
Neuburg/Donau
387
Mo 20.09. 23:2012876 %1023
1024
977
NO 1 (2)>= 10000Stark bewölkt (1400)
Leicht bewölkt (1100)
 
Neuburg/Donau
387
Mo 20.09. 22:2012982 %1022
1023
976
N 1 (2)>= 10000Stark bewölkt (1500) 
Neuburg/Donau
387
Mo 20.09. 21:2012876 %1022
1023
976
NO 1 (2)>= 10000Stark bewölkt (1500) 
Neuburg/Donau
387
Mo 20.09. 20:2013872 %1021
1021
975
NNO 1 (2)>= 10000Stark bewölkt (1500) 
Neuburg/Donau
387
Mo 20.09. 19:2013872 %1021
1021
975
N 1 (2)>= 10000Stark bewölkt (1500) 
Neuburg/Donau
387
Mo 20.09. 18:2014867 %1020
1020
974
O 2 (3)>= 10000Stark bewölkt (1500)
Leicht bewölkt (850)
 
Neuburg/Donau
387
Mo 20.09. 17:2015863 %1020
1020
974
N 1 (2)>= 10000Stark bewölkt (1300)
Leicht bewölkt (850)
 
Neuburg/Donau
387
Mo 20.09. 17:0814867 %1020
1020
974
N 1 (2)>= 10000Stark bewölkt (1300)
Leicht bewölkt (850)
 
Neuburg/Donau
387
Mo 20.09. 16:2015759 %1020
1020
974
NNW 1 (2)>= 10000Stark bewölkt (1300)
Leicht bewölkt (850)
 
Neuburg/Donau
387
Mo 20.09. 15:2014658 %1020
1020
974
Windstill>= 10000Stark bewölkt (1500)
Leicht bewölkt (910)
 
Neuburg/Donau
387
Mo 20.09. 14:2013662 %1020
1020
974
ONO 1 (2)>= 10000Stark bewölkt (1400)
Wolkig (1100)
Leicht bewölkt (730)
 
Neuburg/Donau
387
Mo 20.09. 13:2013872 %1019
1019
973
ONO 2 (3)>= 10000Stark bewölkt (1300)
Leicht bewölkt (700)
 
Neuburg/Donau
387
Mo 20.09. 12:2012876 %1019
1020
973
ONO 2 (3)>= 10000Stark bewölkt (1200)
Leicht bewölkt (610)
 
Neuburg/Donau
387
Mo 20.09. 11:2012771 %1019
1020
973
ONO 2 (3)>= 10000Stark bewölkt (1300)
Leicht bewölkt (760)
 
Neuburg/Donau
387
Mo 20.09. 10:2011882 %1019
1020
973
O 2 (3)>= 10000Stark bewölkt (1200)
Leicht bewölkt (760)
 
Neuburg/Donau
387
Mo 20.09. 09:2011882 %1018
1019
972
Uml 1 (1)>= 10000Stark bewölkt (1200)
Leicht bewölkt (910)
 
Neuburg/Donau
387
Mo 20.09. 08:2011882 %1018
1019
972
NO 1 (2)>= 10000Stark bewölkt (1200) 
Neuburg/Donau
387
Mo 20.09. 07:2011882 %1018
1019
972
O 2 (3)>= 10000Stark bewölkt (1200)
Wolkig (910)
 
Neuburg/Donau
387
Mo 20.09. 06:4811882 %1017
1018
971
ONO 1 (1)>= 10000Stark bewölkt (1400)
Leicht bewölkt (910)
 
Neuburg/Donau
387
Mo 20.09. 06:2011882 %1017
1018
971
Windstill>= 10000Stark bewölkt (1300)
Leicht bewölkt (910)
 
Neuburg/Donau
387
Mo 20.09. 05:2011987 %1017
1018
971
Uml 1 (1)>= 10000Stark bewölkt (1400)
Wolkig (820)
 
Neuburg/Donau
387
Mo 20.09. 04:2011882 %1017
1018
971
Windstill>= 10000  
Neuburg/Donau
387
Mo 20.09. 03:2011987 %1017
1018
971
Windstill>= 10000  
Neuburg/Donau
387
Mo 20.09. 02:2011882 %1017
1018
971
O 1 (2)>= 10000  
Neuburg/Donau
387
Mo 20.09. 01:2011882 %1016
1017
970
O 2 (3)>= 10000  
Neuburg/Donau
387
Mo 20.09. 00:2012982 %1016
1017
970
O 2 (3)>= 10000  
Neuburg/Donau
387
So 19.09. 23:2012982 %1016
1017
970
ONO 1 (2)>= 10000  
Neuburg/Donau
387
So 19.09. 22:2012982 %1015
1016
969
NO 2 (3)>= 10000  
Neuburg/Donau
387
So 19.09. 21:2012982 %1015
1016
969
ONO 2 (5)>= 10000  
Neuburg/Donau
387
So 19.09. 20:2013977 %1014
1014
968
NO 2 (5)>= 10000  
Neuburg/Donau
387
So 19.09. 19:20151072 %1014
1014
968
NO 2 (4)>= 10000  
Neuburg/Donau
387
So 19.09. 18:20161068 %1013
1013
967
NO 2 (5)>= 10000  
Neuburg/Donau
387
So 19.09. 17:20181164 %1013
1013
967
NNO 2 (4)>= 10000  
Neuburg/Donau
387
So 19.09. 16:20181059 %1013
1013
967
NO 2 (4)>= 10000  

Altimeter: Einstellung am Altimeter (Höhenmesser), die Höhe 0 muss auf diesen Luftdruckwert zeigen, damit das Gerät die Stationshöhe richtig anzeigt.

NN: Luftdruck reduziert auf "Normal Null", auf Meereshöhe, dieser von der Temperatur abhängige Wert wird bisweilen unkorrekt einfach als "Luftdruck" bezeichnet. Eigentlich nur eine fiktive Größe, die es erlaubt, Stationen auf unterschiedlichen Höhen miteinander zu vergleichen.

Station: Realer Luftdruck an der Station.